Time;durP1;ratioP1;P1;durP2;ratioP2;P2;SDS_P1;SDS_P2;PMS_P1;PMS_P2;Temp;Humidity;BMP_temperature;BMP_pressure;BME280_temperature;BME280_humidity;BME280_pressure;Samples;Min_cycle;Max_cycle;Signal;HPM_P1;HPM_P2
2021/04/03 00:00:48;;;;;;;22.23;4.93;;;;;;;6.66;91.71;102027.84;4984886;28;20038;-72
2021/04/03 00:03:16;;;;;;;20.40;4.65;;;;;;;6.56;92.16;102012.97;4988811;28;20133;-72
2021/04/03 00:05:43;;;;;;;24.38;5.05;;;;;;;6.59;91.35;102018.25;4984810;28;20034;-72
2021/04/03 00:08:10;;;;;;;29.38;5.07;;;;;;;6.67;91.74;102018.88;4988878;28;20035;-72
2021/04/03 00:10:38;;;;;;;26.58;4.97;;;;;;;6.65;91.81;102013.63;4987255;28;20030;-72
2021/04/03 00:13:03;;;;;;;22.05;5.15;;;;;;;6.60;91.28;102014.66;4990296;28;20505;-72
2021/04/03 00:15:29;;;;;;;19.60;4.20;;;;;;;6.71;89.80;102009.91;4989075;28;20065;-72
2021/04/03 00:17:54;;;;;;;21.90;4.75;;;;;;;6.67;88.37;102005.56;4988113;28;20070;-72
2021/04/03 00:20:24;;;;;;;33.35;5.57;;;;;;;6.63;88.43;102007.44;4987899;28;20483;-72
2021/04/03 00:22:49;;;;;;;18.95;4.20;;;;;;;6.66;88.21;101998.50;4988507;28;20113;-72
2021/04/03 00:25:15;;;;;;;29.08;4.88;;;;;;;6.73;87.98;102005.38;4984498;28;20135;-72
2021/04/03 00:27:42;;;;;;;14.95;5.15;;;;;;;6.72;88.37;101999.19;4984584;28;20037;-72
2021/04/03 00:30:15;;;;;;;25.73;4.97;;;;;;;6.68;88.15;102005.50;4988474;28;20037;-72
2021/04/03 00:32:45;;;;;;;34.03;5.65;;;;;;;6.71;87.03;102001.91;4988598;28;20314;-72
2021/04/03 00:35:12;;;;;;;26.15;4.32;;;;;;;6.62;88.02;102002.13;4984872;28;20031;-72
2021/04/03 00:37:38;;;;;;;22.15;4.32;;;;;;;6.61;88.28;102011.06;4979435;28;20427;-72
2021/04/03 00:40:13;;;;;;;26.65;7.05;;;;;;;6.61;88.53;102003.94;4988285;28;20100;-72
2021/04/03 00:42:38;;;;;;;24.90;7.15;;;;;;;6.72;87.44;101999.19;4989046;28;20546;-72
2021/04/03 00:45:05;;;;;;;24.55;4.32;;;;;;;6.73;86.69;101994.72;4987863;28;20038;-72
2021/04/03 00:47:30;;;;;;;27.35;5.55;;;;;;;6.68;86.81;101996.63;4986705;28;20125;-72
2021/04/03 00:49:56;;;;;;;34.67;8.20;;;;;;;6.66;87.10;101999.38;4985877;28;20148;-72
2021/04/03 00:52:21;;;;;;;28.50;5.82;;;;;;;6.57;87.86;101986.28;4989471;28;20045;-72
2021/04/03 00:54:47;;;;;;;34.28;5.22;;;;;;;6.59;88.33;101991.56;4985979;28;20534;-72
2021/04/03 00:57:12;;;;;;;24.35;4.20;;;;;;;6.62;88.42;101986.13;4988697;28;20038;-72
2021/04/03 00:59:38;;;;;;;31.33;5.57;;;;;;;6.54;88.51;101977.50;4978827;28;20027;-72
2021/04/03 01:02:05;;;;;;;19.00;4.88;;;;;;;6.61;87.91;101979.03;4987774;28;20041;-72
2021/04/03 01:04:34;;;;;;;20.40;3.85;;;;;;;6.60;87.97;101988.00;4983946;28;20028;-72
2021/04/03 01:07:04;;;;;;;32.55;4.55;;;;;;;6.65;87.62;101980.72;4985313;28;20026;-72
2021/04/03 01:09:38;;;;;;;33.63;6.60;;;;;;;6.62;87.86;101975.47;4986073;28;20080;-72
2021/04/03 01:12:17;;;;;;;30.10;5.28;;;;;;;6.64;87.88;101978.97;4981141;28;20100;-72
2021/04/03 01:14:58;;;;;;;22.38;4.55;;;;;;;6.65;86.67;101981.59;4983627;28;20034;-72
2021/04/03 01:17:28;;;;;;;24.83;4.50;;;;;;;6.69;84.28;101990.38;4987922;28;20457;-72
2021/04/03 01:20:12;;;;;;;25.63;5.50;;;;;;;6.63;85.55;101977.22;4985510;28;20093;-72
2021/04/03 01:22:59;;;;;;;17.33;4.15;;;;;;;6.56;86.42;101976.50;4979703;28;20038;-72
2021/04/03 01:26:12;;;;;;;28.15;5.78;;;;;;;6.57;87.25;101975.59;4996917;28;20502;-72
2021/04/03 01:29:15;;;;;;;26.33;4.47;;;;;;;6.66;86.64;101974.47;4986316;28;20026;-72
2021/04/03 01:31:44;;;;;;;22.30;5.30;;;;;;;6.64;87.25;101984.31;4983525;28;20061;-72
2021/04/03 01:34:18;;;;;;;23.08;4.55;;;;;;;6.68;87.13;101976.16;4984043;28;20119;-72
2021/04/03 01:36:45;;;;;;;27.38;4.70;;;;;;;6.55;87.67;101981.88;4987796;28;20034;-72
2021/04/03 01:39:16;;;;;;;27.55;4.30;;;;;;;6.60;86.94;101980.88;4984661;28;20604;-72
2021/04/03 01:41:46;;;;;;;25.63;3.88;;;;;;;6.47;86.62;101975.00;4985208;28;20096;-72
2021/04/03 01:44:17;;;;;;;27.88;5.10;;;;;;;6.43;86.72;101991.97;4986572;28;20033;-72
2021/04/03 01:46:44;;;;;;;25.45;6.50;;;;;;;6.41;87.69;101982.28;4983696;28;20505;-72
2021/04/03 01:49:14;;;;;;;19.00;3.80;;;;;;;6.34;86.25;101984.22;4986118;28;20121;-72
2021/04/03 01:51:48;;;;;;;33.50;6.28;;;;;;;6.33;85.65;101986.94;4981584;28;20070;-72
2021/04/03 01:54:19;;;;;;;25.15;3.33;;;;;;;6.31;85.93;101981.63;4984401;28;20117;-72
2021/04/03 01:56:49;;;;;;;25.23;5.30;;;;;;;6.41;85.71;101983.16;4987651;28;20125;-72
2021/04/03 01:59:19;;;;;;;23.10;3.67;;;;;;;6.34;85.93;101996.69;4983301;28;20630;-72
2021/04/03 02:01:53;;;;;;;24.92;4.57;;;;;;;6.41;86.48;101990.28;4985681;28;20117;-72
2021/04/03 02:04:21;;;;;;;21.35;3.78;;;;;;;6.27;87.15;101987.97;4980037;28;20480;-72
2021/04/03 02:06:49;;;;;;;21.83;4.13;;;;;;;6.30;86.98;101990.53;4981023;28;20065;-72
2021/04/03 02:09:24;;;;;;;30.25;4.45;;;;;;;6.27;86.84;101995.97;4980061;28;20043;-72
2021/04/03 02:11:53;;;;;;;30.80;4.35;;;;;;;6.29;86.92;101999.50;4986609;28;20127;-72
2021/04/03 02:14:37;;;;;;;25.80;4.35;;;;;;;6.36;85.98;101998.38;4958292;28;20546;-72
2021/04/03 02:17:05;;;;;;;30.27;3.50;;;;;;;6.36;86.05;101998.38;4989328;28;20346;-72
2021/04/03 02:19:33;;;;;;;26.85;4.30;;;;;;;6.28;85.13;102008.41;4990817;28;20110;-72
2021/04/03 02:21:59;;;;;;;21.60;3.60;;;;;;;6.30;85.49;102011.88;4991735;28;20033;-72
2021/04/03 02:24:26;;;;;;;22.58;3.65;;;;;;;6.33;84.17;102005.59;4988835;28;20034;-72
2021/04/03 02:26:52;;;;;;;18.92;2.70;;;;;;;6.24;82.84;102006.69;4995038;28;20034;-72
2021/04/03 02:29:18;;;;;;;27.88;3.35;;;;;;;6.21;82.93;102006.78;4994290;28;20143;-72
2021/04/03 02:31:43;;;;;;;29.30;3.58;;;;;;;6.31;82.19;102016.28;4993199;28;20031;-72
2021/04/03 02:34:09;;;;;;;19.58;3.60;;;;;;;6.34;81.71;102013.56;4993300;28;20038;-72
2021/04/03 02:36:36;;;;;;;11.90;2.83;;;;;;;6.19;81.42;102011.28;4991080;28;20141;-71
2021/04/03 02:39:03;;;;;;;16.38;2.17;;;;;;;6.32;80.81;102012.72;4991959;28;20113;-72
2021/04/03 02:41:59;;;;;;;18.50;2.55;;;;;;;6.27;80.25;102006.63;4992221;28;20036;-72
2021/04/03 02:44:37;;;;;;;22.50;2.88;;;;;;;6.26;80.89;102014.66;4989944;28;20418;-72
2021/04/03 02:47:26;;;;;;;17.83;3.10;;;;;;;6.18;81.69;102012.19;4990762;28;20034;-72
2021/04/03 02:50:04;;;;;;;25.52;2.55;;;;;;;6.14;81.18;102010.53;4987093;28;20041;-72
2021/04/03 02:52:35;;;;;;;18.08;2.13;;;;;;;6.18;81.30;102014.84;4988503;28;20125;-72
2021/04/03 02:55:02;;;;;;;20.05;3.05;;;;;;;6.13;81.28;102019.44;4991265;28;20112;-71
2021/04/03 02:57:30;;;;;;;18.23;2.97;;;;;;;6.20;81.42;102015.72;4986612;28;20100;-71
2021/04/03 02:59:57;;;;;;;22.85;3.97;;;;;;;6.14;82.51;102010.53;4991010;28;20034;-71
2021/04/03 03:02:25;;;;;;;25.60;2.60;;;;;;;6.27;82.40;102006.63;4993029;28;20074;-71
2021/04/03 03:04:54;;;;;;;18.98;3.15;;;;;;;6.24;82.16;102006.69;4993367;28;20061;-71
2021/04/03 03:07:24;;;;;;;23.00;3.38;;;;;;;6.21;82.49;102001.47;4988626;28;20163;-71
2021/04/03 03:09:51;;;;;;;18.60;2.47;;;;;;;6.17;82.66;101999.81;4988283;28;20030;-71
2021/04/03 03:12:21;;;;;;;21.30;2.63;;;;;;;6.17;82.62;102005.13;4991310;28;20377;-71
2021/04/03 03:14:50;;;;;;;14.95;3.20;;;;;;;6.19;82.93;101997.94;4986116;28;20034;-71
2021/04/03 03:17:17;;;;;;;36.55;2.97;;;;;;;6.16;83.21;101995.38;4991503;28;20053;-70
2021/04/03 03:19:50;;;;;;;24.15;3.20;;;;;;;6.03;83.17;102007.25;4967933;28;20078;-71
2021/04/03 03:22:16;;;;;;;20.45;4.10;;;;;;;6.13;82.75;101998.13;4973558;28;20324;-71
2021/04/03 03:24:42;;;;;;;20.63;2.92;;;;;;;6.16;82.93;102002.50;4987820;28;20106;-71
2021/04/03 03:27:09;;;;;;;22.60;2.67;;;;;;;6.06;82.94;102007.16;4992430;28;20058;-70
2021/04/03 03:29:40;;;;;;;17.63;2.72;;;;;;;6.12;82.83;102012.34;4987437;28;20038;-71
2021/04/03 03:32:06;;;;;;;18.58;2.03;;;;;;;6.17;82.55;102009.59;4989409;28;20569;-71
2021/04/03 03:34:33;;;;;;;21.80;2.97;;;;;;;6.06;82.58;102005.38;4987576;28;20094;-71
2021/04/03 03:37:02;;;;;;;19.92;2.63;;;;;;;6.11;82.33;102007.09;4984127;28;20133;-71
2021/04/03 03:39:36;;;;;;;15.52;3.00;;;;;;;5.99;82.95;102001.13;4986970;28;20038;-71
2021/04/03 03:42:04;;;;;;;30.33;2.45;;;;;;;6.08;82.87;102000.91;4989826;28;20499;-71
2021/04/03 03:44:30;;;;;;;20.20;2.30;;;;;;;6.06;82.85;102002.72;4986318;28;20030;-71
2021/04/03 03:46:56;;;;;;;22.60;2.67;;;;;;;6.04;82.81;101995.69;4966574;28;20126;-71
2021/04/03 03:49:22;;;;;;;17.98;2.95;;;;;;;6.01;83.71;102003.75;4986604;28;20598;-70
2021/04/03 03:51:48;;;;;;;19.25;4.53;;;;;;;6.03;83.31;102007.25;4986109;28;20513;-71
2021/04/03 03:54:16;;;;;;;31.80;3.78;;;;;;;6.06;83.37;102004.50;4988900;28;20666;-70
2021/04/03 03:56:41;;;;;;;17.70;2.70;;;;;;;6.02;83.77;102016.16;4991337;28;20042;-71
2021/04/03 03:59:07;;;;;;;18.10;2.28;;;;;;;5.93;84.15;102013.72;4987153;28;20602;-71
2021/04/03 04:01:34;;;;;;;25.35;2.25;;;;;;;5.99;84.07;102010.91;4981874;28;20022;-71
2021/04/03 04:04:03;;;;;;;23.42;2.72;;;;;;;6.03;84.06;102017.94;4981192;28;20042;-71
2021/04/03 04:06:29;;;;;;;21.98;2.15;;;;;;;6.03;83.90;102017.94;4986569;28;20041;-71
2021/04/03 04:08:55;;;;;;;39.92;4.70;;;;;;;6.00;83.33;102018.00;4987829;28;20117;-70
2021/04/03 04:11:22;;;;;;;30.10;4.38;;;;;;;6.01;82.97;102020.63;4987081;28;20498;-70
2021/04/03 04:13:55;;;;;;;26.30;3.22;;;;;;;6.01;83.09;102014.41;4987686;28;20030;-71
2021/04/03 04:16:29;;;;;;;20.83;2.50;;;;;;;5.98;82.99;102020.72;4987894;28;20064;-71
2021/04/03 04:18:56;;;;;;;20.75;3.67;;;;;;;5.99;83.11;102010.91;4983750;28;20041;-70
2021/04/03 04:21:24;;;;;;;27.65;2.80;;;;;;;5.97;83.33;102018.97;4985984;28;20030;-71
2021/04/03 04:23:49;;;;;;;24.48;2.50;;;;;;;5.99;83.89;102017.09;4989474;28;20113;-71
2021/04/03 04:26:16;;;;;;;24.38;2.47;;;;;;;6.06;83.33;102029.38;4986568;28;20531;-71
2021/04/03 04:28:47;;;;;;;16.98;3.28;;;;;;;6.07;82.64;102030.25;4988171;28;20030;-71
2021/04/03 04:31:16;;;;;;;19.60;2.60;;;;;;;5.96;83.19;102042.97;4985946;28;20042;-71
2021/04/03 04:33:50;;;;;;;31.08;3.30;;;;;;;6.07;83.03;102035.59;4985074;28;20125;-71
2021/04/03 04:36:18;;;;;;;19.33;2.42;;;;;;;6.01;83.62;102049.94;4987174;28;20062;-71
2021/04/03 04:38:44;;;;;;;24.83;3.47;;;;;;;6.00;83.39;102044.63;4986445;28;20343;-72
2021/04/03 04:41:11;;;;;;;37.50;2.72;;;;;;;5.90;83.67;102049.34;4972658;28;20125;-72
2021/04/03 04:43:37;;;;;;;34.00;4.30;;;;;;;5.97;83.23;102060.72;5002662;28;20158;-71
2021/04/03 04:46:03;;;;;;;19.52;2.65;;;;;;;5.91;83.74;102058.19;4978476;28;20031;-72
2021/04/03 04:48:38;;;;;;;19.27;2.60;;;;;;;5.95;84.00;102065.19;4984182;28;20073;-72
2021/04/03 04:51:11;;;;;;;24.45;2.97;;;;;;;5.97;84.04;102063.38;4981028;28;20080;-72
2021/04/03 04:53:37;;;;;;;17.73;2.55;;;;;;;5.94;83.88;102063.44;4982651;28;20023;-72
2021/04/03 04:56:03;;;;;;;21.63;2.53;;;;;;;6.03;83.38;102061.44;4986212;28;20053;-71
2021/04/03 04:58:33;;;;;;;29.13;4.00;;;;;;;5.99;83.78;102067.75;4985563;28;20101;-72
2021/04/03 05:01:01;;;;;;;26.40;2.60;;;;;;;5.99;83.08;102080.19;4983439;28;20424;-72
2021/04/03 05:03:41;;;;;;;27.35;3.35;;;;;;;6.00;83.58;102076.63;4982044;28;20048;-72
2021/04/03 05:06:07;;;;;;;29.63;3.75;;;;;;;5.95;84.16;102071.41;4985123;28;20563;-71
2021/04/03 05:08:32;;;;;;;24.75;2.53;;;;;;;5.97;84.00;102066.06;4989014;28;20487;-72
2021/04/03 05:10:58;;;;;;;15.25;2.67;;;;;;;6.01;83.94;102075.72;4975479;28;20126;-72
2021/04/03 05:13:23;;;;;;;22.75;4.55;;;;;;;6.02;84.53;102074.81;4987263;28;20034;-72
2021/04/03 05:15:55;;;;;;;27.77;3.75;;;;;;;6.02;84.27;102088.13;4982647;28;20050;-71
2021/04/03 05:18:21;;;;;;;34.45;3.15;;;;;;;5.94;84.10;102092.75;4989093;28;20081;-72
2021/04/03 05:20:47;;;;;;;20.08;4.05;;;;;;;5.99;84.23;102093.53;4986404;28;20034;-72
2021/04/03 05:23:15;;;;;;;24.83;4.30;;;;;;;5.96;84.55;102090.94;4988515;28;20062;-72
2021/04/03 05:25:40;;;;;;;18.40;2.75;;;;;;;5.91;84.90;102093.72;4986605;28;20097;-72
2021/04/03 05:28:05;;;;;;;24.60;2.58;;;;;;;6.00;84.57;102103.28;4989049;28;20034;-72
2021/04/03 05:30:31;;;;;;;20.13;2.67;;;;;;;5.94;84.98;102100.75;4987428;28;20495;-72
2021/04/03 05:32:57;;;;;;;19.52;3.05;;;;;;;5.93;84.71;102093.66;4988040;28;20105;-72
2021/04/03 05:35:22;;;;;;;25.13;2.85;;;;;;;5.92;85.43;102105.25;4987027;28;20103;-72
2021/04/03 05:37:48;;;;;;;24.25;3.53;;;;;;;5.93;85.44;102101.66;4985820;28;20483;-72
2021/04/03 05:40:13;;;;;;;24.08;2.70;;;;;;;5.89;85.47;102100.88;4986349;28;20037;-72
2021/04/03 05:42:44;;;;;;;27.48;3.50;;;;;;;5.97;85.67;102103.38;4989335;28;20069;-72
2021/04/03 05:45:15;;;;;;;27.27;2.72;;;;;;;6.03;85.29;102113.88;4987991;28;20042;-72
2021/04/03 05:47:41;;;;;;;21.10;2.60;;;;;;;6.12;84.81;102116.31;4983353;28;20042;-72
2021/04/03 05:50:07;;;;;;;32.97;5.45;;;;;;;6.10;85.36;102120.84;4980324;28;20062;-72
2021/04/03 05:52:34;;;;;;;31.50;3.20;;;;;;;6.03;85.93;102125.44;4987230;28;20038;-72
2021/04/03 05:55:03;;;;;;;27.83;5.35;;;;;;;6.03;86.07;102130.75;4987326;28;20034;-72
2021/04/03 05:57:29;;;;;;;22.75;3.30;;;;;;;6.08;86.56;102128.84;4987649;28;20061;-72
2021/04/03 05:59:55;;;;;;;25.10;3.35;;;;;;;6.14;86.20;102133.16;4984750;28;20142;-72
2021/04/03 06:02:20;;;;;;;24.85;3.90;;;;;;;6.19;86.43;102141.03;4987828;28;20097;-72
2021/04/03 06:04:46;;;;;;;26.52;3.70;;;;;;;6.20;86.05;102135.69;4981588;28;20132;-72
2021/04/03 06:07:12;;;;;;;29.20;3.05;;;;;;;6.31;86.50;102141.63;4979087;28;20034;-72
2021/04/03 06:09:37;;;;;;;24.77;3.50;;;;;;;6.31;86.48;102149.63;4987445;28;20451;-72
2021/04/03 06:12:03;;;;;;;25.30;3.75;;;;;;;6.34;86.23;102148.69;4989016;28;20069;-72
2021/04/03 06:14:37;;;;;;;25.17;3.45;;;;;;;6.38;85.99;102148.56;4985028;28;20024;-72
2021/04/03 06:17:04;;;;;;;20.48;2.78;;;;;;;6.34;86.32;102156.69;4988018;28;20027;-72
2021/04/03 06:19:29;;;;;;;28.02;3.17;;;;;;;6.42;86.43;102144.91;4984975;28;20033;-72
2021/04/03 06:21:57;;;;;;;37.05;3.58;;;;;;;6.47;86.04;102148.38;4986582;28;20026;-72
2021/04/03 06:24:27;;;;;;;25.58;3.10;;;;;;;6.51;84.96;102159.81;4984941;28;20069;-72
2021/04/03 06:26:55;;;;;;;16.90;2.60;;;;;;;6.48;85.37;102165.25;4986260;28;20073;-72
2021/04/03 06:29:34;;;;;;;28.35;3.50;;;;;;;6.48;84.95;102166.09;4983733;28;20026;-72
2021/04/03 06:32:00;;;;;;;34.92;4.65;;;;;;;6.53;85.25;102168.69;4979766;28;20064;-72
2021/04/03 06:34:33;;;;;;;24.85;3.63;;;;;;;6.58;84.75;102172.09;4986334;28;20042;-71
2021/04/03 06:37:00;;;;;;;27.48;3.53;;;;;;;6.61;84.92;102171.13;4988184;28;20073;-72
2021/04/03 06:39:28;;;;;;;33.00;4.07;;;;;;;6.73;84.92;102176.16;4987289;28;20038;-72
2021/04/03 06:41:53;;;;;;;39.15;4.57;;;;;;;6.95;83.44;102177.38;4988616;28;20034;-71
2021/04/03 06:44:20;;;;;;;27.75;4.03;;;;;;;7.11;82.93;102176.06;4986340;28;20034;-72
2021/04/03 06:46:48;;;;;;;34.92;3.97;;;;;;;7.25;82.89;102181.03;4985513;28;20030;-72
2021/04/03 06:49:16;;;;;;;29.92;4.18;;;;;;;7.43;82.13;102179.63;4986990;28;20053;-72
2021/04/03 06:51:43;;;;;;;25.73;3.60;;;;;;;7.77;81.33;102184.91;4987772;28;20031;-72
2021/04/03 06:54:10;;;;;;;21.88;3.45;;;;;;;8.06;79.17;102184.91;4986075;28;20030;-72
2021/04/03 06:56:36;;;;;;;50.58;8.18;;;;;;;8.44;77.05;102189.09;4986541;28;20026;-72
2021/04/03 06:59:12;;;;;;;39.92;5.03;;;;;;;9.06;74.72;102200.41;4985894;28;20034;-73
2021/04/03 07:01:46;;;;;;;32.65;4.18;;;;;;;9.43;72.07;102199.09;4983374;28;20030;-72
2021/04/03 07:04:29;;;;;;;32.58;3.97;;;;;;;10.00;70.48;102213.00;4991208;28;20487;-72
2021/04/03 07:06:56;;;;;;;31.80;4.18;;;;;;;10.52;68.38;102211.88;4991459;28;20085;-72
2021/04/03 07:09:23;;;;;;;26.55;4.57;;;;;;;10.98;65.86;102209.13;4985851;28;20395;-72
2021/04/03 07:11:51;;;;;;;31.63;4.22;;;;;;;10.71;65.51;102203.06;4984731;28;20043;-73
2021/04/03 07:14:18;;;;;;;23.50;4.75;;;;;;;10.74;65.38;102201.13;4989767;28;20494;-72
2021/04/03 07:16:45;;;;;;;34.67;4.90;;;;;;;10.42;67.37;102207.84;4989740;28;20041;-72
2021/04/03 07:19:12;;;;;;;33.78;6.00;;;;;;;10.92;66.33;102221.00;4985250;28;20582;-72
2021/04/03 07:21:38;;;;;;;35.15;4.00;;;;;;;10.78;64.33;102212.63;4988573;28;20114;-72
2021/04/03 07:24:05;;;;;;;25.83;3.10;;;;;;;10.21;65.50;102215.84;4985765;28;20026;-72
2021/04/03 07:26:30;;;;;;;34.83;4.18;;;;;;;9.80;67.62;102207.53;4985768;28;20030;-73
2021/04/03 07:28:56;;;;;;;23.30;4.10;;;;;;;9.46;69.07;102210.56;4999734;28;20420;-72
2021/04/03 07:31:42;;;;;;;22.67;4.07;;;;;;;9.38;70.19;102217.16;4990065;28;20046;-72
2021/04/03 07:34:09;;;;;;;38.40;4.20;;;;;;;9.60;69.92;102223.47;4988144;28;20565;-72
2021/04/03 07:36:40;;;;;;;35.72;3.75;;;;;;;10.49;66.37;102224.56;4989060;28;20038;-72
2021/04/03 07:39:35;;;;;;;34.42;5.32;;;;;;;11.30;63.83;102225.59;4986530;28;20395;-73
2021/04/03 07:42:01;;;;;;;31.88;4.47;;;;;;;11.31;62.29;102226.47;4987670;28;20029;-72
2021/04/03 07:44:36;;;;;;;30.88;3.72;;;;;;;11.14;62.08;102227.19;4983105;28;20072;-73
2021/04/03 07:47:22;;;;;;;25.08;4.43;;;;;;;11.75;60.01;102232.59;4987895;28;20402;-72
2021/04/03 07:49:48;;;;;;;23.65;4.03;;;;;;;11.33;58.71;102233.53;4983916;28;20061;-72
2021/04/03 07:52:14;;;;;;;25.35;4.85;;;;;;;10.88;60.55;102232.78;4970889;28;20096;-73
2021/04/03 07:54:39;;;;;;;33.00;3.03;;;;;;;10.36;62.45;102232.22;4983791;28;20519;-73
2021/04/03 07:57:09;;;;;;;20.90;4.95;;;;;;;9.97;63.98;102234.59;4989136;28;20042;-72
2021/04/03 07:59:44;;;;;;;23.30;4.10;;;;;;;9.71;65.46;102238.25;4990058;28;20030;-72
2021/04/03 08:02:18;;;;;;;18.92;3.40;;;;;;;9.53;66.49;102238.03;4987842;28;20053;-72
2021/04/03 08:04:44;;;;;;;25.63;2.88;;;;;;;9.30;65.34;102244.22;4989297;28;20057;-73
2021/04/03 08:07:10;;;;;;;23.23;2.97;;;;;;;9.17;65.51;102240.19;4990598;28;20404;-72
2021/04/03 08:09:37;;;;;;;22.27;4.25;;;;;;;9.26;66.04;102245.22;4986930;28;20034;-72
2021/04/03 08:12:04;;;;;;;22.70;4.50;;;;;;;9.37;65.82;102250.22;4983496;28;20042;-72
2021/04/03 08:14:32;;;;;;;31.33;4.28;;;;;;;10.40;61.96;102249.97;4988621;28;20480;-73
2021/04/03 08:16:58;;;;;;;17.65;3.70;;;;;;;11.54;56.70;102265.81;4989557;28;20026;-72
2021/04/03 08:19:25;;;;;;;27.73;4.47;;;;;;;12.39;54.72;102270.03;4984477;28;20201;-72
2021/04/03 08:21:50;;;;;;;43.53;4.63;;;;;;;12.50;52.27;102267.69;4986886;28;20034;-73
2021/04/03 08:24:18;;;;;;;20.60;3.42;;;;;;;12.14;52.94;102271.16;4988680;28;20034;-73
2021/04/03 08:26:44;;;;;;;27.50;5.13;;;;;;;11.78;53.49;102283.59;4989065;28;20137;-73
2021/04/03 08:29:30;;;;;;;28.15;6.00;;;;;;;11.07;55.11;102281.28;4990697;28;20117;-73
2021/04/03 08:31:57;;;;;;;19.58;3.20;;;;;;;10.81;57.11;102287.69;4986118;28;20117;-73
2021/04/03 08:34:23;;;;;;;50.67;12.75;;;;;;;11.12;57.33;102288.19;4989718;28;20049;-73
2021/04/03 08:36:49;;;;;;;44.55;11.77;;;;;;;11.21;56.70;102284.25;4987213;28;20034;-73
2021/04/03 08:39:17;;;;;;;80.95;23.58;;;;;;;11.25;57.13;102284.06;4986535;28;20046;-73
2021/04/03 08:41:45;;;;;;;43.08;11.45;;;;;;;11.08;57.82;102291.97;4987061;28;20474;-73
2021/04/03 08:44:21;;;;;;;48.42;9.00;;;;;;;10.73;59.64;102285.34;4987731;28;20042;-73
2021/04/03 08:46:49;;;;;;;51.58;11.85;;;;;;;10.73;59.72;102289.84;4982763;28;20046;-73
2021/04/03 08:49:25;;;;;;;54.95;15.10;;;;;;;10.58;59.36;102291.31;4985615;28;20038;-73
2021/04/03 08:51:52;;;;;;;72.18;21.50;;;;;;;10.67;60.57;102298.16;4984435;28;20042;-73
2021/04/03 08:54:18;;;;;;;57.22;16.27;;;;;;;10.50;59.63;102294.28;4980116;28;20109;-73
2021/04/03 08:56:45;;;;;;;35.15;7.22;;;;;;;10.35;59.95;102299.38;4988086;28;20054;-73
2021/04/03 08:59:15;;;;;;;34.90;9.70;;;;;;;10.60;60.08;102302.00;4989976;28;20045;-73
2021/04/03 09:01:46;;;;;;;28.67;6.10;;;;;;;10.95;57.53;102302.34;4984431;28;20364;-73
2021/04/03 09:04:13;;;;;;;46.35;16.05;;;;;;;11.51;56.33;102307.16;4988751;28;20521;-73
2021/04/03 09:06:52;;;;;;;30.10;9.80;;;;;;;11.55;54.57;102310.56;4989709;28;20026;-72
2021/04/03 09:09:20;;;;;;;27.63;5.15;;;;;;;11.20;56.01;102299.50;4987851;28;20042;-73
2021/04/03 09:11:59;;;;;;;25.48;4.30;;;;;;;11.49;56.28;102302.78;4990616;28;20034;-72
2021/04/03 09:14:31;;;;;;;23.05;4.90;;;;;;;11.78;55.94;102305.13;4986272;28;20026;-73
2021/04/03 09:16:58;;;;;;;24.70;5.13;;;;;;;12.39;54.54;102303.22;4987612;28;20038;-74
2021/04/03 09:19:31;;;;;;;27.30;5.45;;;;;;;12.94;53.92;102312.22;4989724;28;20061;-73
2021/04/03 09:21:58;;;;;;;23.90;4.50;;;;;;;13.15;51.79;102309.44;4988238;28;20082;-73
2021/04/03 09:24:44;;;;;;;26.67;5.20;;;;;;;13.29;52.13;102312.31;4990110;28;20072;-73
2021/04/03 09:27:20;;;;;;;27.45;5.05;;;;;;;13.22;51.90;102311.75;4984627;28;20062;-73
2021/04/03 09:29:48;;;;;;;20.52;4.75;;;;;;;13.14;52.54;102308.59;4989430;28;20041;-73
2021/04/03 09:32:15;;;;;;;26.65;4.85;;;;;;;12.39;54.39;102307.72;4984833;28;20075;-73
2021/04/03 09:34:41;;;;;;;24.00;4.45;;;;;;;11.90;56.27;102301.88;4990113;28;20057;-73
2021/04/03 09:37:21;;;;;;;22.55;6.05;;;;;;;11.81;57.62;102294.22;4982384;28;20069;-73
2021/04/03 09:39:51;;;;;;;16.25;3.45;;;;;;;11.74;57.41;102292.72;4987662;28;20507;-73
2021/04/03 09:42:19;;;;;;;23.60;4.07;;;;;;;11.73;59.84;102285.56;4987738;28;20479;-73
2021/04/03 09:44:46;;;;;;;31.13;4.75;;;;;;;12.10;58.88;102296.47;4989672;28;20085;-73
2021/04/03 09:47:12;;;;;;;33.33;6.72;;;;;;;12.25;57.67;102304.78;4989304;28;20392;-74
2021/04/03 09:49:41;;;;;;;30.58;6.03;;;;;;;12.20;57.26;102296.06;4987737;28;20034;-73
2021/04/03 09:52:07;;;;;;;26.63;4.60;;;;;;;12.44;55.81;102294.91;4985728;28;20034;-73
2021/04/03 09:54:33;;;;;;;21.17;4.20;;;;;;;12.71;56.79;102293.63;4983099;28;20057;-73
2021/04/03 09:57:00;;;;;;;33.53;4.53;;;;;;;12.64;55.89;102299.34;4987799;28;20117;-73
2021/04/03 09:59:28;;;;;;;25.88;6.60;;;;;;;12.17;57.40;102302.44;4976706;28;20038;-73
2021/04/03 10:01:58;;;;;;;19.23;5.35;;;;;;;12.10;58.05;102300.97;4979888;28;20066;-74
2021/04/03 10:04:24;;;;;;;25.45;4.82;;;;;;;12.52;58.46;102292.75;4986963;28;20037;-73
2021/04/03 10:06:50;;;;;;;26.42;5.20;;;;;;;12.84;57.02;102291.16;4986679;28;20042;-74
2021/04/03 10:09:15;;;;;;;35.85;5.05;;;;;;;13.13;57.50;102296.06;4988332;28;20439;-73
2021/04/03 10:11:41;;;;;;;20.58;3.85;;;;;;;13.42;56.74;102296.38;4987202;28;20077;-74
2021/04/03 10:14:07;;;;;;;26.58;4.97;;;;;;;13.19;54.84;102286.78;4986607;28;20038;-75
2021/04/03 10:16:32;;;;;;;25.25;4.35;;;;;;;12.67;56.11;102292.00;4984194;28;20030;-73
2021/04/03 10:18:58;;;;;;;32.03;6.00;;;;;;;12.83;56.66;102295.72;4988200;28;20061;-74
2021/04/03 10:21:24;;;;;;;19.17;5.15;;;;;;;13.04;55.10;102295.59;4988175;28;20034;-74
2021/04/03 10:23:50;;;;;;;27.25;5.13;;;;;;;13.24;56.89;102292.81;4987686;28;20132;-73
2021/04/03 10:26:17;;;;;;;24.42;5.70;;;;;;;13.43;54.71;102298.16;4987615;28;20042;-73
2021/04/03 10:28:42;;;;;;;28.92;4.68;;;;;;;13.35;55.93;102295.81;4987575;28;20114;-74
2021/04/03 10:31:08;;;;;;;24.17;4.13;;;;;;;13.35;55.64;102303.91;4987842;28;20043;-74
2021/04/03 10:33:34;;;;;;;25.15;4.95;;;;;;;13.12;58.04;102288.91;4988639;28;20081;-73
2021/04/03 10:36:00;;;;;;;30.48;5.32;;;;;;;13.31;57.19;102294.25;4988080;28;20041;-73
2021/04/03 10:38:27;;;;;;;26.27;4.75;;;;;;;13.61;55.77;102295.38;4988138;28;20258;-74
2021/04/03 10:40:52;;;;;;;23.70;4.80;;;;;;;13.40;55.26;102303.69;4990349;28;20479;-74
2021/04/03 10:43:18;;;;;;;17.90;4.35;;;;;;;13.52;56.72;102303.94;4992059;28;20042;-74
2021/04/03 10:45:43;;;;;;;26.10;4.97;;;;;;;13.65;55.96;102304.16;4991785;28;20038;-74
2021/04/03 10:48:09;;;;;;;22.15;5.25;;;;;;;13.55;56.13;102301.09;4991162;28;20065;-73
2021/04/03 10:50:34;;;;;;;31.48;6.18;;;;;;;13.20;57.67;102296.63;4991137;28;20058;-73
2021/04/03 10:53:00;;;;;;;29.13;5.60;;;;;;;12.91;56.16;102300.69;4990257;28;20045;-74
2021/04/03 10:55:25;;;;;;;22.33;4.05;;;;;;;12.51;58.06;102301.75;4983945;28;20030;-74
2021/04/03 10:57:50;;;;;;;57.83;16.40;;;;;;;12.67;58.70;102297.38;4992101;28;20038;-73
2021/04/03 11:00:16;;;;;;;26.92;6.03;;;;;;;13.08;57.31;102297.19;4982178;28;20031;-74
2021/04/03 11:02:42;;;;;;;26.50;4.68;;;;;;;13.12;57.72;102299.69;4993216;28;20084;-73
2021/04/03 11:05:08;;;;;;;25.63;5.90;;;;;;;13.22;55.58;102300.09;4989641;28;20047;-74
2021/04/03 11:07:34;;;;;;;24.02;5.22;;;;;;;13.42;58.91;102296.38;4990192;28;20034;-73
2021/04/03 11:09:59;;;;;;;21.83;4.40;;;;;;;13.42;56.69;102301.78;4989006;28;20039;-73
2021/04/03 11:12:25;;;;;;;23.05;6.03;;;;;;;13.28;56.92;102306.06;4992494;28;20030;-74
2021/04/03 11:14:50;;;;;;;27.30;4.97;;;;;;;13.53;56.90;102302.97;4987607;28;20121;-74
2021/04/03 11:17:16;;;;;;;24.98;4.75;;;;;;;13.19;56.08;102305.66;4991925;28;20097;-73
2021/04/03 11:19:41;;;;;;;32.13;5.15;;;;;;;12.85;56.27;102307.28;4989562;28;20065;-74
2021/04/03 11:22:07;;;;;;;29.10;4.88;;;;;;;13.24;56.47;102304.47;4990847;28;20113;-74
2021/04/03 11:24:33;;;;;;;26.35;4.93;;;;;;;13.32;55.89;102302.28;4988448;28;20085;-74
2021/04/03 11:27:00;;;;;;;21.77;4.68;;;;;;;13.15;55.76;102304.03;4991506;28;20037;-74
2021/04/03 11:29:27;;;;;;;20.48;5.45;;;;;;;12.94;56.88;102303.25;4987245;28;20034;-74